Time;durP1;ratioP1;P1;durP2;ratioP2;P2;SDS_P1;SDS_P2;PMS_P1;PMS_P2;Temp;Humidity;BMP_temperature;BMP_pressure;BME280_temperature;BME280_humidity;BME280_pressure;Samples;Min_cycle;Max_cycle;Signal;HPM_P1;HPM_P2
2023/01/16 00:00:31;;;;;;;;;;;12.20;99.90;;;;;;5093258;28;20301;-70
2023/01/16 00:02:57;;;;;;;;;;;12.20;99.90;;;;;;5092688;28;19904;-71
2023/01/16 00:05:23;;;;;;;;;;;12.20;99.90;;;;;;5092785;28;19916;-70
2023/01/16 00:07:49;;;;;;;;;;;12.20;99.90;;;;;;5093163;28;19930;-70
2023/01/16 00:10:16;;;;;;;;;;;12.20;99.90;;;;;;5092765;28;19960;-70
2023/01/16 00:12:42;;;;;;;;;;;12.20;99.90;;;;;;5092588;28;20364;-67
2023/01/16 00:15:08;;;;;;;;;;;12.20;99.90;;;;;;5092866;28;19962;-71
2023/01/16 00:17:34;;;;;;;;;;;12.20;99.90;;;;;;5092449;28;19973;-71
2023/01/16 00:19:59;;;;;;;;;;;12.20;99.90;;;;;;5092349;28;19995;-71
2023/01/16 00:22:25;;;;;;;;;;;12.30;99.90;;;;;;5092810;28;19927;-70
2023/01/16 00:24:51;;;;;;;;;;;12.30;99.90;;;;;;5092363;28;20009;-70
2023/01/16 00:27:17;;;;;;;;;;;12.30;99.90;;;;;;5092382;28;19904;-69
2023/01/16 00:29:42;;;;;;;;;;;12.30;99.90;;;;;;5073830;28;20266;-71
2023/01/16 00:32:10;;;;;;;;;;;12.30;99.90;;;;;;5092645;28;19914;-71
2023/01/16 00:34:35;;;;;;;;;;;12.30;99.90;;;;;;5092353;28;19904;-71
2023/01/16 00:37:01;;;;;;;;;;;12.30;99.90;;;;;;5092224;28;19904;-70
2023/01/16 00:39:27;;;;;;;;;;;12.30;99.90;;;;;;5091758;28;19912;-70
2023/01/16 00:41:53;;;;;;;;;;;12.30;99.90;;;;;;5092124;28;20314;-70
2023/01/16 00:44:19;;;;;;;;;;;12.30;99.90;;;;;;5073776;28;19907;-71
2023/01/16 00:46:46;;;;;;;;;;;12.30;99.90;;;;;;5092104;28;19904;-71
2023/01/16 00:49:13;;;;;;;;;;;12.30;99.90;;;;;;5092139;28;19908;-69
2023/01/16 00:51:39;;;;;;;;;;;12.30;99.90;;;;;;5073307;28;20295;-70
2023/01/16 00:54:06;;;;;;;;;;;12.30;99.90;;;;;;5073695;28;20013;-70
2023/01/16 00:56:33;;;;;;;;;;;12.30;99.90;;;;;;5092125;28;20308;-69
2023/01/16 00:58:58;;;;;;;;;;;12.30;99.90;;;;;;5092115;28;19912;-70
2023/01/16 01:01:24;;;;;;;;;;;12.30;99.90;;;;;;5091799;28;19904;-70
2023/01/16 01:03:51;;;;;;;;;;;12.30;99.90;;;;;;5092244;28;20392;-69
2023/01/16 01:06:18;;;;;;;;;;;12.30;99.90;;;;;;5091614;28;20003;-69
2023/01/16 01:08:44;;;;;;;;;;;12.30;99.90;;;;;;5092250;28;19919;-71
2023/01/16 01:11:11;;;;;;;;;;;12.30;99.90;;;;;;5073208;28;19914;-69
2023/01/16 01:13:37;;;;;;;;;;;12.20;99.90;;;;;;5091575;28;19923;-69
2023/01/16 01:16:04;;;;;;;;;;;12.30;99.90;;;;;;5091772;28;19940;-71
2023/01/16 01:18:29;;;;;;;;;;;12.20;99.90;;;;;;5091595;28;19912;-70
2023/01/16 01:20:55;;;;;;;;;;;12.20;99.90;;;;;;5073134;28;20240;-69
2023/01/16 01:23:21;;;;;;;;;;;12.10;99.90;;;;;;5091436;28;19913;-70
2023/01/16 01:25:47;;;;;;;;;;;12.20;99.90;;;;;;5091400;28;19958;-67
2023/01/16 01:28:13;;;;;;;;;;;12.20;99.90;;;;;;5073294;28;19904;-69
2023/01/16 01:30:38;;;;;;;;;;;12.20;99.90;;;;;;5091443;28;20280;-70
2023/01/16 01:33:04;;;;;;;;;;;12.20;99.90;;;;;;5091352;28;19998;-70
2023/01/16 01:35:30;;;;;;;;;;;12.20;99.90;;;;;;5091229;28;19908;-69
2023/01/16 01:37:56;;;;;;;;;;;12.20;99.90;;;;;;5073074;28;19915;-70
2023/01/16 01:40:21;;;;;;;;;;;12.20;99.90;;;;;;5091503;28;19949;-69
2023/01/16 01:42:51;;;;;;;;;;;12.20;99.90;;;;;;5091129;28;20410;-70
2023/01/16 01:45:25;;;;;;;;;;;12.20;99.90;;;;;;5091344;28;19904;-70
2023/01/16 01:48:04;;;;;;;;;;;12.20;99.90;;;;;;5091538;28;19904;-70
2023/01/16 01:50:36;;;;;;;;;;;12.20;99.90;;;;;;5093798;28;20022;-70
2023/01/16 01:53:03;;;;;;;;;;;12.10;99.90;;;;;;5095631;28;20007;-70
2023/01/16 01:55:29;;;;;;;;;;;12.10;99.90;;;;;;5076807;28;20004;-70
2023/01/16 01:57:58;;;;;;;;;;;12.10;99.90;;;;;;5095086;28;19955;-68
2023/01/16 02:00:25;;;;;;;;;;;12.10;99.90;;;;;;5095316;28;20367;-70
2023/01/16 02:02:55;;;;;;;;;;;12.10;99.90;;;;;;5095022;28;19904;-70
2023/01/16 02:05:27;;;;;;;;;;;12.10;99.90;;;;;;5095075;28;19908;-70
2023/01/16 02:07:53;;;;;;;;;;;12.20;99.90;;;;;;5095217;28;19911;-69
2023/01/16 02:10:22;;;;;;;;;;;12.10;99.90;;;;;;5095026;28;19994;-71
2023/01/16 02:12:48;;;;;;;;;;;12.10;99.90;;;;;;5095491;28;19904;-71
2023/01/16 02:15:14;;;;;;;;;;;12.20;99.90;;;;;;5095309;28;19904;-71
2023/01/16 02:20:27;;;;;;;;;;;12.10;99.90;;;;;;5095360;28;20283;-70
2023/01/16 02:23:12;;;;;;;;;;;12.10;99.90;;;;;;5094659;28;20356;-70
2023/01/16 02:25:40;;;;;;;;;;;12.20;99.90;;;;;;5094688;28;19916;-69
2023/01/16 02:28:24;;;;;;;;;;;12.20;99.90;;;;;;5094857;28;19973;-69
2023/01/16 02:30:59;;;;;;;;;;;12.30;99.90;;;;;;5094357;28;20043;-70
2023/01/16 02:33:38;;;;;;;;;;;12.30;99.90;;;;;;5094761;28;20268;-70
2023/01/16 02:36:20;;;;;;;;;;;12.30;99.90;;;;;;5094190;28;20287;-70
2023/01/16 02:38:54;;;;;;;;;;;12.20;99.90;;;;;;5094631;28;19912;-70
2023/01/16 02:41:41;;;;;;;;;;;12.20;99.90;;;;;;5094902;28;19922;-70
2023/01/16 02:44:16;;;;;;;;;;;12.20;99.90;;;;;;5094977;28;19914;-70
2023/01/16 02:46:49;;;;;;;;;;;12.20;99.90;;;;;;5094393;28;19911;-68
2023/01/16 02:49:28;;;;;;;;;;;12.20;99.90;;;;;;5094228;28;19973;-70
2023/01/16 02:52:08;;;;;;;;;;;12.10;99.90;;;;;;5026082;28;19904;-70
2023/01/16 02:54:52;;;;;;;;;;;12.10;99.90;;;;;;5093403;28;20060;-70
2023/01/16 02:57:21;;;;;;;;;;;12.00;99.90;;;;;;5076210;28;19905;-70
2023/01/16 02:59:48;;;;;;;;;;;12.10;99.90;;;;;;5056068;28;19912;-71
2023/01/16 03:02:15;;;;;;;;;;;12.10;99.90;;;;;;5072774;28;19914;-70
2023/01/16 03:04:42;;;;;;;;;;;12.10;99.90;;;;;;5073755;28;19908;-70
2023/01/16 03:07:20;;;;;;;;;;;12.20;99.90;;;;;;5073622;28;19949;-69
2023/01/16 03:10:14;;;;;;;;;;;12.20;99.90;;;;;;5073991;28;20351;-69
2023/01/16 03:12:58;;;;;;;;;;;12.20;99.90;;;;;;4991891;28;19905;-70
2023/01/16 03:15:34;;;;;;;;;;;12.30;99.90;;;;;;4992005;28;20374;-69
2023/01/16 03:18:32;;;;;;;;;;;12.30;99.90;;;;;;4992067;28;19929;-69
2023/01/16 03:21:13;;;;;;;;;;;12.20;99.90;;;;;;4953094;29;20008;-71
2023/01/16 03:23:39;;;;;;;;;;;12.20;99.90;;;;;;4953150;29;19997;-70
2023/01/16 03:26:14;;;;;;;;;;;12.10;99.90;;;;;;4953164;29;19918;-70
2023/01/16 03:28:50;;;;;;;;;;;12.10;99.90;;;;;;4952401;29;20383;-69
2023/01/16 03:31:35;;;;;;;;;;;12.20;99.90;;;;;;4952149;28;19919;-70
2023/01/16 03:34:08;;;;;;;;;;;12.20;99.90;;;;;;4953334;29;20120;-70
2023/01/16 03:36:54;;;;;;;;;;;12.20;99.90;;;;;;4952817;29;19906;-70
2023/01/16 03:39:21;;;;;;;;;;;12.10;99.90;;;;;;4952860;29;19944;-70
2023/01/16 03:41:51;;;;;;;;;;;12.20;99.90;;;;;;4952759;29;19907;-70
2023/01/16 03:44:25;;;;;;;;;;;12.30;99.90;;;;;;4953424;29;19950;-70
2023/01/16 03:46:52;;;;;;;;;;;12.30;99.90;;;;;;4953401;29;20302;-70
2023/01/16 03:49:24;;;;;;;;;;;12.30;99.90;;;;;;4952716;29;19956;-71
2023/01/16 03:51:53;;;;;;;;;;;12.30;99.90;;;;;;4952390;29;20343;-70
2023/01/16 03:54:37;;;;;;;;;;;12.30;99.90;;;;;;4952154;29;19910;-69
2023/01/16 03:57:14;;;;;;;;;;;12.30;99.90;;;;;;5037635;28;19934;-72
2023/01/16 03:59:43;;;;;;;;;;;12.20;99.90;;;;;;5072727;28;19960;-69
2023/01/16 04:02:12;;;;;;;;;;;12.30;99.90;;;;;;5072656;28;19927;-71
2023/01/16 04:04:43;;;;;;;;;;;12.30;99.90;;;;;;5072783;28;19962;-71
2023/01/16 04:07:13;;;;;;;;;;;12.30;99.90;;;;;;5073101;28;19947;-70
2023/01/16 04:09:54;;;;;;;;;;;12.30;99.90;;;;;;5073597;28;19956;-70
2023/01/16 04:12:22;;;;;;;;;;;12.30;99.90;;;;;;5073484;28;19955;-70
2023/01/16 04:14:50;;;;;;;;;;;12.30;99.90;;;;;;5080559;28;19943;-70
2023/01/16 04:17:18;;;;;;;;;;;12.30;99.90;;;;;;5071931;28;19912;-71
2023/01/16 04:19:44;;;;;;;;;;;12.30;99.90;;;;;;5068707;28;19927;-69
2023/01/16 04:22:19;;;;;;;;;;;12.30;99.90;;;;;;5054989;28;19908;-69
2023/01/16 04:24:45;;;;;;;;;;;12.30;99.90;;;;;;5056553;28;20341;-70
2023/01/16 04:27:11;;;;;;;;;;;12.30;99.90;;;;;;5073636;28;19915;-70
2023/01/16 04:29:36;;;;;;;;;;;12.30;99.90;;;;;;5073442;28;19905;-70
2023/01/16 04:32:02;;;;;;;;;;;12.20;99.90;;;;;;5074024;28;20257;-70
2023/01/16 04:34:28;;;;;;;;;;;12.20;99.90;;;;;;5073503;28;19909;-69
2023/01/16 04:36:54;;;;;;;;;;;12.20;99.90;;;;;;5073391;28;19950;-70
2023/01/16 04:39:20;;;;;;;;;;;12.20;99.90;;;;;;5073963;28;20272;-70
2023/01/16 04:41:50;;;;;;;;;;;12.20;99.90;;;;;;5073446;28;19904;-71
2023/01/16 04:44:16;;;;;;;;;;;12.20;99.90;;;;;;5073090;28;19908;-70
2023/01/16 04:46:43;;;;;;;;;;;12.20;99.90;;;;;;5073429;28;20264;-67
2023/01/16 04:49:09;;;;;;;;;;;12.20;99.90;;;;;;5073107;28;19962;-70
2023/01/16 04:51:36;;;;;;;;;;;12.20;99.90;;;;;;5073177;28;20348;-70
2023/01/16 04:54:03;;;;;;;;;;;12.10;99.90;;;;;;5073110;28;19904;-69
2023/01/16 04:56:29;;;;;;;;;;;12.20;99.90;;;;;;5084108;28;19910;-70
2023/01/16 04:58:55;;;;;;;;;;;12.10;99.90;;;;;;5093465;28;19912;-70
2023/01/16 05:01:21;;;;;;;;;;;12.20;99.90;;;;;;5093521;28;19904;-70
2023/01/16 05:03:48;;;;;;;;;;;12.20;99.90;;;;;;5093683;28;19905;-70
2023/01/16 05:06:14;;;;;;;;;;;12.20;99.90;;;;;;5093228;28;19965;-70
2023/01/16 05:08:39;;;;;;;;;;;12.20;99.90;;;;;;5092989;28;19904;-68
2023/01/16 05:11:05;;;;;;;;;;;12.20;99.90;;;;;;5093175;28;19972;-70
2023/01/16 05:13:31;;;;;;;;;;;12.20;99.90;;;;;;5092698;28;19911;-70
2023/01/16 05:15:57;;;;;;;;;;;12.20;99.90;;;;;;5092121;28;19923;-69
2023/01/16 05:18:23;;;;;;;;;;;12.20;99.90;;;;;;5093239;28;19977;-69
2023/01/16 05:20:49;;;;;;;;;;;12.20;99.90;;;;;;5093022;28;19908;-70
2023/01/16 05:23:15;;;;;;;;;;;12.20;99.90;;;;;;5093759;28;20262;-70
2023/01/16 05:25:42;;;;;;;;;;;12.20;99.90;;;;;;5098587;28;19998;-66
2023/01/16 05:28:09;;;;;;;;;;;12.20;99.90;;;;;;5081332;28;20002;-71
2023/01/16 05:30:35;;;;;;;;;;;12.20;99.90;;;;;;5099929;28;19943;-70
2023/01/16 05:33:02;;;;;;;;;;;12.20;99.90;;;;;;5064908;28;19920;-70
2023/01/16 05:35:29;;;;;;;;;;;12.20;99.90;;;;;;5099925;28;19926;-70
2023/01/16 05:37:55;;;;;;;;;;;12.30;99.90;;;;;;5099759;28;19908;-69
2023/01/16 05:40:20;;;;;;;;;;;12.30;99.90;;;;;;5081730;28;19931;-69
2023/01/16 05:42:47;;;;;;;;;;;12.30;99.90;;;;;;5099870;28;19939;-71
2023/01/16 05:45:14;;;;;;;;;;;12.30;99.90;;;;;;5099771;28;19938;-69
2023/01/16 05:47:40;;;;;;;;;;;12.30;99.90;;;;;;5099776;28;19904;-70
2023/01/16 05:50:06;;;;;;;;;;;12.30;99.90;;;;;;5098287;28;19911;-70
2023/01/16 05:52:39;;;;;;;;;;;12.30;99.90;;;;;;5099372;28;19904;-70
2023/01/16 05:55:05;;;;;;;;;;;12.40;99.90;;;;;;5099479;28;20000;-70
2023/01/16 05:57:33;;;;;;;;;;;12.40;99.90;;;;;;5099468;28;19926;-70
2023/01/16 05:59:59;;;;;;;;;;;12.40;99.90;;;;;;5099256;28;19954;-67
2023/01/16 06:02:25;;;;;;;;;;;12.40;99.90;;;;;;5099080;28;19904;-71
2023/01/16 06:04:51;;;;;;;;;;;12.40;99.90;;;;;;5098984;28;20351;-70
2023/01/16 06:07:18;;;;;;;;;;;12.40;99.90;;;;;;5098755;28;19947;-70
2023/01/16 06:09:44;;;;;;;;;;;12.40;99.90;;;;;;5094821;28;19911;-71
2023/01/16 06:12:14;;;;;;;;;;;12.40;99.90;;;;;;5099147;28;19904;-71
2023/01/16 06:14:40;;;;;;;;;;;12.40;99.90;;;;;;5099508;28;20252;-71
2023/01/16 06:17:05;;;;;;;;;;;12.40;99.90;;;;;;5099040;28;20018;-70
2023/01/16 06:19:31;;;;;;;;;;;12.40;99.90;;;;;;5099794;28;19951;-70
2023/01/16 06:21:57;;;;;;;;;;;12.40;99.90;;;;;;5099177;28;19904;-70
2023/01/16 06:24:23;;;;;;;;;;;12.40;99.90;;;;;;5099046;28;19904;-71
2023/01/16 06:26:48;;;;;;;;;;;12.40;99.90;;;;;;5087259;28;20298;-70
2023/01/16 06:29:15;;;;;;;;;;;12.40;99.90;;;;;;5098606;28;19904;-70
2023/01/16 06:31:41;;;;;;;;;;;12.40;99.90;;;;;;5098231;28;19965;-70
2023/01/16 06:34:07;;;;;;;;;;;12.50;99.90;;;;;;5098359;28;19983;-71
2023/01/16 06:36:32;;;;;;;;;;;12.60;99.90;;;;;;5095101;28;20007;-70
2023/01/16 06:38:58;;;;;;;;;;;12.60;99.90;;;;;;5095495;28;20350;-68
2023/01/16 06:41:24;;;;;;;;;;;12.60;99.90;;;;;;5094954;28;19904;-70
2023/01/16 06:43:50;;;;;;;;;;;12.70;99.90;;;;;;5095418;28;20350;-70
2023/01/16 06:46:15;;;;;;;;;;;12.80;99.90;;;;;;5094890;28;20042;-70
2023/01/16 06:48:42;;;;;;;;;;;12.80;99.90;;;;;;5094484;28;20347;-68
2023/01/16 06:51:09;;;;;;;;;;;12.80;99.90;;;;;;5094750;28;19904;-71
2023/01/16 06:53:35;;;;;;;;;;;12.90;99.90;;;;;;5094883;28;19903;-71
2023/01/16 06:56:01;;;;;;;;;;;13.00;99.90;;;;;;5094720;28;20225;-71
2023/01/16 06:58:27;;;;;;;;;;;13.10;99.90;;;;;;5094407;28;19912;-71
2023/01/16 07:00:54;;;;;;;;;;;13.20;99.90;;;;;;5094626;28;20241;-70
2023/01/16 07:03:22;;;;;;;;;;;13.30;99.90;;;;;;5076858;28;19986;-71
2023/01/16 07:05:48;;;;;;;;;;;13.40;99.90;;;;;;5094196;28;19904;-71
2023/01/16 07:08:16;;;;;;;;;;;13.50;99.90;;;;;;5076219;28;19930;-72
2023/01/16 07:10:41;;;;;;;;;;;13.50;99.90;;;;;;5094357;28;19957;-72
2023/01/16 07:13:09;;;;;;;;;;;13.50;99.90;;;;;;5094291;28;19904;-71
2023/01/16 07:23:56;;;;;;;;;;;14.00;99.90;;;;;;5094431;28;19915;-71
2023/01/16 07:26:22;;;;;;;;;;;14.10;99.90;;;;;;5094648;28;19911;-71
2023/01/16 07:28:52;;;;;;;;;;;14.20;99.90;;;;;;5094998;28;19904;-72
2023/01/16 07:31:20;;;;;;;;;;;14.20;99.90;;;;;;5094060;28;19916;-71
2023/01/16 07:33:46;;;;;;;;;;;14.20;99.90;;;;;;5076492;28;19956;-70
2023/01/16 07:36:12;;;;;;;;;;;14.30;99.90;;;;;;5093571;28;19999;-71
2023/01/16 07:38:37;;;;;;;;;;;14.30;99.90;;;;;;5094120;28;19919;-72
2023/01/16 07:41:05;;;;;;;;;;;14.40;99.90;;;;;;5076131;28;19947;-70
2023/01/16 07:43:32;;;;;;;;;;;14.40;99.90;;;;;;5094425;28;19962;-72
2023/01/16 07:45:58;;;;;;;;;;;14.40;99.90;;;;;;5094908;28;19911;-71
2023/01/16 07:48:24;;;;;;;;;;;14.40;99.90;;;;;;5093943;28;19904;-71
2023/01/16 07:50:51;;;;;;;;;;;14.40;99.90;;;;;;5094026;28;19908;-72
2023/01/16 07:53:21;;;;;;;;;;;14.40;99.90;;;;;;5094111;28;19949;-69
2023/01/16 07:55:51;;;;;;;;;;;14.30;99.90;;;;;;5078967;28;20371;-68
2023/01/16 07:58:17;;;;;;;;;;;14.30;99.90;;;;;;5090371;28;19924;-70
2023/01/16 08:00:44;;;;;;;;;;;14.40;99.90;;;;;;5090100;28;19914;-70
2023/01/16 08:03:13;;;;;;;;;;;14.40;99.90;;;;;;5080346;28;19912;-70
2023/01/16 08:05:39;;;;;;;;;;;14.40;99.90;;;;;;5093596;28;19908;-68
2023/01/16 08:08:06;;;;;;;;;;;14.40;99.90;;;;;;5092306;28;20419;-71
2023/01/16 08:10:31;;;;;;;;;;;14.30;99.90;;;;;;5092291;28;19947;-70
2023/01/16 08:12:57;;;;;;;;;;;14.40;99.90;;;;;;5093885;28;19939;-70
2023/01/16 08:15:23;;;;;;;;;;;14.60;99.90;;;;;;5093727;28;19995;-72
2023/01/16 08:17:49;;;;;;;;;;;14.70;99.90;;;;;;5094290;28;19904;-71
2023/01/16 08:20:14;;;;;;;;;;;14.70;99.90;;;;;;5093619;28;19915;-72
2023/01/16 08:22:44;;;;;;;;;;;14.70;99.90;;;;;;5091728;28;20344;-71
2023/01/16 08:25:10;;;;;;;;;;;14.70;99.90;;;;;;5093093;28;19904;-72
2023/01/16 08:27:37;;;;;;;;;;;14.80;99.90;;;;;;5113419;28;20356;-71
2023/01/16 08:30:04;;;;;;;;;;;14.90;99.90;;;;;;5113783;28;19948;-71
2023/01/16 08:32:30;;;;;;;;;;;15.00;99.90;;;;;;5113555;28;20002;-72
2023/01/16 08:34:55;;;;;;;;;;;15.00;99.90;;;;;;5113869;28;19965;-73
2023/01/16 08:37:21;;;;;;;;;;;15.20;99.90;;;;;;5113662;28;19907;-70
2023/01/16 08:39:47;;;;;;;;;;;15.30;99.90;;;;;;5113519;28;19919;-71
2023/01/16 08:53:10;;;;;;;;;;;17.00;99.90;;;;;;5092097;28;19931;-71
2023/01/16 08:55:36;;;;;;;;;;;17.20;99.90;;;;;;5092390;28;19904;-71
2023/01/16 08:58:01;;;;;;;;;;;17.20;99.90;;;;;;5092389;28;20316;-70
2023/01/16 09:00:28;;;;;;;;;;;17.40;99.90;;;;;;5091570;28;19908;-71
2023/01/16 09:02:55;;;;;;;;;;;17.50;99.90;;;;;;5092316;28;20344;-68
2023/01/16 09:05:22;;;;;;;;;;;17.50;99.90;;;;;;5092038;28;19921;-71
2023/01/16 09:07:48;;;;;;;;;;;17.50;99.90;;;;;;5092534;28;20359;-70
2023/01/16 09:10:14;;;;;;;;;;;17.50;99.90;;;;;;5092791;28;19908;-67
2023/01/16 09:15:24;;;;;;;;;;;17.30;99.90;;;;;;5092759;28;19910;-71
2023/01/16 09:17:50;;;;;;;;;;;17.00;99.90;;;;;;5092320;28;19904;-68
2023/01/16 09:20:16;;;;;;;;;;;16.90;99.90;;;;;;5074320;28;20256;-71
2023/01/16 09:22:42;;;;;;;;;;;16.90;99.90;;;;;;5092573;28;19966;-68
2023/01/16 09:25:08;;;;;;;;;;;17.00;99.90;;;;;;5092724;28;19904;-70
2023/01/16 09:27:33;;;;;;;;;;;16.90;99.90;;;;;;5092850;28;20338;-70
2023/01/16 09:29:59;;;;;;;;;;;16.60;99.90;;;;;;5093279;28;19950;-71
2023/01/16 09:32:25;;;;;;;;;;;16.40;99.90;;;;;;5092747;28;20368;-71
2023/01/16 09:34:51;;;;;;;;;;;16.20;99.90;;;;;;5092730;28;19918;-70
2023/01/16 09:37:18;;;;;;;;;;;16.00;99.90;;;;;;5091621;28;19956;-70
2023/01/16 09:39:44;;;;;;;;;;;15.90;99.90;;;;;;5092578;28;19912;-72
2023/01/16 09:45:18;;;;;;;;;;;16.30;99.90;;;;;;5092996;28;19973;-71
2023/01/16 09:47:49;;;;;;;;;;;16.30;99.90;;;;;;5092460;28;20267;-72
2023/01/16 09:50:24;;;;;;;;;;;16.20;99.90;;;;;;5092510;28;20260;-72
2023/01/16 09:58:36;;;;;;;;;;;16.00;99.90;;;;;;5091793;28;19965;-73
2023/01/16 10:01:05;;;;;;;;;;;16.10;99.90;;;;;;5091899;28;19914;-71
2023/01/16 10:03:31;;;;;;;;;;;16.20;99.90;;;;;;5091722;28;19904;-72
2023/01/16 10:06:02;;;;;;;;;;;16.30;99.90;;;;;;5091807;28;19938;-71
2023/01/16 10:08:35;;;;;;;;;;;16.30;99.90;;;;;;5073973;28;20348;-72
2023/01/16 10:11:20;;;;;;;;;;;16.20;99.90;;;;;;5093692;28;19923;-70
2023/01/16 10:13:53;;;;;;;;;;;16.20;99.90;;;;;;5077222;28;20316;-73
2023/01/16 10:16:38;;;;;;;;;;;16.30;99.90;;;;;;5094404;28;19957;-71
2023/01/16 10:19:15;;;;;;;;;;;16.30;99.90;;;;;;5095379;28;20019;-71
2023/01/16 10:22:05;;;;;;;;;;;16.40;99.90;;;;;;5095607;28;20481;-69
2023/01/16 10:24:37;;;;;;;;;;;16.40;99.90;;;;;;5095770;28;19905;-69
2023/01/16 10:27:02;;;;;;;;;;;16.50;99.90;;;;;;5095338;28;19904;-72
2023/01/16 10:29:34;;;;;;;;;;;16.50;99.90;;;;;;5095657;28;20405;-72
2023/01/16 10:32:00;;;;;;;;;;;16.20;99.90;;;;;;5083891;28;19923;-72
2023/01/16 10:34:39;;;;;;;;;;;16.30;99.90;;;;;;5095565;28;20006;-71
2023/01/16 10:37:05;;;;;;;;;;;16.10;99.90;;;;;;5095862;28;20355;-71
2023/01/16 10:39:32;;;;;;;;;;;16.10;99.90;;;;;;5095630;28;19920;-71
2023/01/16 10:50:43;;;;;;;;;;;15.60;99.90;;;;;;5095333;28;19935;-72
2023/01/16 10:53:11;;;;;;;;;;;15.50;99.90;;;;;;5094988;28;20362;-72
2023/01/16 10:55:43;;;;;;;;;;;15.30;99.90;;;;;;5094956;28;19911;-71
2023/01/16 10:58:29;;;;;;;;;;;15.40;99.90;;;;;;5093647;28;19912;-71
2023/01/16 11:01:03;;;;;;;;;;;15.50;99.90;;;;;;5090936;28;19926;-73
2023/01/16 11:03:38;;;;;;;;;;;15.50;99.90;;;;;;5083055;28;19917;-71
2023/01/16 11:06:06;;;;;;;;;;;15.50;99.90;;;;;;5083726;28;19908;-72
2023/01/16 11:08:32;;;;;;;;;;;15.50;99.90;;;;;;5077023;28;19927;-69
2023/01/16 11:11:00;;;;;;;;;;;15.50;99.90;;;;;;5074466;28;19905;-73
2023/01/16 11:18:55;;;;;;;;;;;15.80;99.90;;;;;;5074032;28;19918;-70
2023/01/16 11:21:21;;;;;;;;;;;15.80;99.90;;;;;;5074305;28;20302;-71
2023/01/16 11:23:48;;;;;;;;;;;15.70;99.90;;;;;;5055234;28;19912;-71
2023/01/16 11:26:15;;;;;;;;;;;15.90;99.90;;;;;;5082578;28;20348;-71
2023/01/16 11:28:47;;;;;;;;;;;16.10;99.90;;;;;;5094268;28;19923;-72
2023/01/16 11:31:25;;;;;;;;;;;16.40;99.90;;;;;;5093880;28;19961;-71
2023/01/16 11:33:59;;;;;;;;;;;16.50;99.90;;;;;;5075884;28;19908;-72
2023/01/16 11:36:25;;;;;;;;;;;16.50;99.90;;;;;;5075995;28;19926;-72
2023/01/16 11:38:52;;;;;;;;;;;16.50;99.90;;;;;;5094308;28;19908;-69
2023/01/16 11:41:19;;;;;;;;;;;16.50;99.90;;;;;;5094382;28;19904;-71
2023/01/16 11:46:41;;;;;;;;;;;16.20;99.90;;;;;;5094128;28;20306;-71
2023/01/16 11:49:17;;;;;;;;;;;16.20;99.90;;;;;;5093450;28;19943;-72
2023/01/16 11:51:43;;;;;;;;;;;16.30;99.90;;;;;;5075084;28;19920;-71
2023/01/16 11:54:16;;;;;;;;;;;16.20;99.90;;;;;;5093696;28;20275;-74
2023/01/16 11:56:49;;;;;;;;;;;16.30;99.90;;;;;;5074905;28;20003;-66
2023/01/16 11:59:25;;;;;;;;;;;16.10;99.90;;;;;;5093600;28;19920;-71
2023/01/16 12:02:21;;;;;;;;;;;16.10;99.90;;;;;;5093176;28;19931;-71
2023/01/16 12:07:54;;;;;;;;;;;15.80;99.90;;;;;;5030144;28;20340;-69
2023/01/16 12:10:19;;;;;;;;;;;15.80;99.90;;;;;;5030836;28;20019;-70
2023/01/16 12:15:58;;;;;;;;;;;15.60;99.90;;;;;;5030146;28;20418;-70
2023/01/16 12:18:44;;;;;;;;;;;15.60;99.90;;;;;;5031729;28;20366;-69
2023/01/16 12:21:24;;;;;;;;;;;15.60;99.90;;;;;;5032211;28;19988;-70
2023/01/16 12:24:09;;;;;;;;;;;15.60;99.90;;;;;;5034562;28;20447;-70
2023/01/16 12:27:01;;;;;;;;;;;15.60;99.90;;;;;;5015352;28;20254;-70
2023/01/16 12:29:36;;;;;;;;;;;15.70;99.90;;;;;;4991873;28;19948;-70
2023/01/16 12:32:22;;;;;;;;;;;15.70;99.90;;;;;;4991580;28;19929;-70
2023/01/16 12:34:54;;;;;;;;;;;15.80;99.90;;;;;;4974101;28;19945;-70
2023/01/16 12:37:46;;;;;;;;;;;15.70;99.90;;;;;;4976629;28;19910;-70
2023/01/16 12:40:42;;;;;;;;;;;15.70;99.90;;;;;;4972371;28;19921;-69
2023/01/16 12:43:32;;;;;;;;;;;15.80;99.90;;;;;;4964081;28;20362;-70
2023/01/16 12:45:59;;;;;;;;;;;15.90;99.90;;;;;;4994739;28;20305;-71
2023/01/16 12:48:31;;;;;;;;;;;16.20;99.90;;;;;;4995118;28;19937;-69
2023/01/16 12:50:56;;;;;;;;;;;16.30;99.90;;;;;;5010626;28;20021;-71
2023/01/16 12:53:31;;;;;;;;;;;16.20;99.90;;;;;;5010767;28;20405;-71
2023/01/16 12:56:03;;;;;;;;;;;16.20;99.90;;;;;;5010746;28;19940;-71
2023/01/16 12:58:34;;;;;;;;;;;16.10;99.90;;;;;;5001853;28;19914;-68
2023/01/16 13:01:22;;;;;;;;;;;16.20;99.90;;;;;;4998211;28;19924;-71
2023/01/16 13:03:53;;;;;;;;;;;16.40;99.90;;;;;;4998574;28;20040;-69
2023/01/16 13:06:30;;;;;;;;;;;16.50;99.90;;;;;;5016377;28;19923;-71
2023/01/16 13:09:05;;;;;;;;;;;16.70;99.90;;;;;;5034114;28;19905;-71
2023/01/16 13:14:24;;;;;;;;;;;17.00;99.90;;;;;;5084487;28;19919;-71
2023/01/16 13:17:10;;;;;;;;;;;17.20;99.90;;;;;;5092965;28;19939;-71
2023/01/16 13:19:38;;;;;;;;;;;17.30;99.90;;;;;;5077582;28;19919;-71
2023/01/16 13:22:10;;;;;;;;;;;17.30;99.90;;;;;;5072654;28;19916;-72
2023/01/16 13:24:46;;;;;;;;;;;17.20;99.90;;;;;;5072765;28;20042;-73
2023/01/16 13:27:17;;;;;;;;;;;17.10;99.90;;;;;;5071410;28;19908;-72
2023/01/16 13:29:53;;;;;;;;;;;17.00;99.90;;;;;;5074579;28;19904;-72
2023/01/16 13:32:37;;;;;;;;;;;16.90;99.90;;;;;;5092863;28;19959;-71
2023/01/16 13:35:12;;;;;;;;;;;16.60;99.90;;;;;;5092527;28;20404;-71
2023/01/16 13:37:54;;;;;;;;;;;16.40;99.90;;;;;;5092678;28;19923;-70
2023/01/16 13:40:40;;;;;;;;;;;16.30;99.90;;;;;;5092814;28;20239;-72
2023/01/16 13:46:02;;;;;;;;;;;16.10;99.90;;;;;;5095054;28;19957;-72
2023/01/16 13:48:31;;;;;;;;;;;16.10;99.90;;;;;;5096491;28;19904;-72
2023/01/16 13:51:01;;;;;;;;;;;16.10;99.90;;;;;;5096345;28;19911;-71
2023/01/16 13:53:29;;;;;;;;;;;16.10;99.90;;;;;;5096268;28;19904;-71
2023/01/16 13:56:05;;;;;;;;;;;16.20;99.90;;;;;;5096129;28;20006;-72
2023/01/16 13:58:31;;;;;;;;;;;16.20;99.90;;;;;;5095644;28;20280;-71
2023/01/16 14:01:01;;;;;;;;;;;16.10;99.90;;;;;;5096316;28;19904;-69
2023/01/16 14:03:31;;;;;;;;;;;16.10;99.90;;;;;;5096036;28;20007;-72
2023/01/16 14:06:17;;;;;;;;;;;16.00;99.90;;;;;;5096334;28;19904;-71
2023/01/16 14:09:14;;;;;;;;;;;16.00;99.90;;;;;;5096239;28;19950;-72
2023/01/16 14:11:41;;;;;;;;;;;16.00;99.90;;;;;;5096730;28;19904;-71
2023/01/16 14:16:30;;;;;;;;;;;15.90;99.90;;;;;;5096008;28;19939;-72
2023/01/16 14:17:06;;;;;;;;;;;15.90;99.90;;;;;;5087797;28;19949;-72
2023/01/16 14:19:36;;;;;;;;;;;15.80;99.90;;;;;;5096475;28;20334;-72
2023/01/16 14:24:38;;;;;;;;;;;15.70;99.90;;;;;;5096113;28;19904;-70
2023/01/16 14:27:04;;;;;;;;;;;15.70;99.90;;;;;;5096082;28;19904;-71
2023/01/16 14:29:32;;;;;;;;;;;15.70;99.90;;;;;;5077997;28;19994;-72
2023/01/16 14:32:01;;;;;;;;;;;15.60;99.90;;;;;;5096266;28;20288;-74
2023/01/16 14:34:32;;;;;;;;;;;15.60;99.90;;;;;;5095933;28;19904;-73
2023/01/16 14:37:11;;;;;;;;;;;15.50;99.90;;;;;;5095658;28;19918;-73
2023/01/16 14:39:46;;;;;;;;;;;15.50;99.90;;;;;;5086786;28;19919;-72
2023/01/16 14:56:34;;;;;;;;;;;15.30;99.90;;;;;;5094905;28;19914;-73
2023/01/16 14:59:04;;;;;;;;;;;15.30;99.90;;;;;;5094152;28;20364;-74
2023/01/16 15:02:20;;;;;;;;;;;15.30;99.90;;;;;;5094868;28;19904;-74
2023/01/16 15:04:51;;;;;;;;;;;15.40;99.90;;;;;;4991388;28;19925;-74
2023/01/16 15:07:20;;;;;;;;;;;15.30;99.90;;;;;;4993224;28;19985;-75
2023/01/16 15:09:46;;;;;;;;;;;15.20;99.90;;;;;;4993094;28;19910;-73
2023/01/16 15:12:19;;;;;;;;;;;15.20;99.90;;;;;;4993140;28;20276;-70
2023/01/16 15:14:55;;;;;;;;;;;15.20;99.90;;;;;;4992620;28;19956;-71
2023/01/16 15:23:24;;;;;;;;;;;15.00;99.90;;;;;;4993271;28;19960;-71
2023/01/16 15:26:06;;;;;;;;;;;15.00;99.90;;;;;;4976447;28;19906;-71
2023/01/16 15:28:43;;;;;;;;;;;15.00;99.90;;;;;;4992753;28;19912;-71
2023/01/16 15:31:09;;;;;;;;;;;15.00;99.90;;;;;;4992716;28;19917;-71
2023/01/16 15:33:48;;;;;;;;;;;15.00;99.90;;;;;;4992427;28;19913;-72
2023/01/16 15:36:23;;;;;;;;;;;14.90;99.90;;;;;;5060521;28;20015;-73
2023/01/16 15:38:53;;;;;;;;;;;15.00;99.90;;;;;;5074171;28;19962;-72
2023/01/16 15:46:32;;;;;;;;;;;14.90;99.90;;;;;;5073715;28;20297;-73
2023/01/16 15:47:22;;;;;;;;;;;14.90;99.90;;;;;;5073773;28;19954;-71
2023/01/16 15:49:49;;;;;;;;;;;14.90;99.90;;;;;;5018084;28;19920;-72
2023/01/16 15:52:18;;;;;;;;;;;14.90;99.90;;;;;;5073525;28;19912;-72
2023/01/16 15:54:45;;;;;;;;;;;14.80;99.90;;;;;;5038082;28;20015;-72
2023/01/16 15:57:18;;;;;;;;;;;14.80;99.90;;;;;;5054609;28;20049;-72
2023/01/16 15:59:51;;;;;;;;;;;14.80;99.90;;;;;;5072565;28;20106;-69
2023/01/16 16:02:17;;;;;;;;;;;14.80;99.90;;;;;;5072338;28;19969;-72